Time;durP1;ratioP1;P1;durP2;ratioP2;P2;SDS_P1;SDS_P2;PMS_P1;PMS_P2;Temp;Humidity;BMP_temperature;BMP_pressure;BME280_temperature;BME280_humidity;BME280_pressure;Samples;Min_cycle;Max_cycle;Signal;HPM_P1;HPM_P2
2022/07/02 00:00:59;;;;;;;3.92;1.67;;;;;20.40;101994.00;;;;5050518;28;20199;-77
2022/07/02 00:03:33;;;;;;;4.30;2.25;;;;;20.30;101989.00;;;;5056767;28;20210;-77
2022/07/02 00:06:02;;;;;;;2.25;1.65;;;;;20.30;101982.00;;;;5062812;28;20283;-77
2022/07/02 00:08:32;;;;;;;4.82;1.83;;;;;20.30;101990.00;;;;5053766;28;20203;-77
2022/07/02 00:11:00;;;;;;;2.40;1.92;;;;;20.30;101984.00;;;;5053770;28;20202;-77
2022/07/02 00:13:28;;;;;;;2.40;1.65;;;;;20.30;101980.00;;;;5050296;28;20663;-77
2022/07/02 00:15:56;;;;;;;2.10;1.90;;;;;20.30;101996.00;;;;5060134;28;20198;-77
2022/07/02 00:18:24;;;;;;;3.88;2.03;;;;;20.20;101987.00;;;;5057647;28;20192;-77
2022/07/02 00:20:51;;;;;;;2.80;1.52;;;;;20.20;101996.00;;;;5053809;28;20210;-78
2022/07/02 00:23:18;;;;;;;2.40;2.00;;;;;20.20;101992.00;;;;5062634;28;20202;-77
2022/07/02 00:25:56;;;;;;;3.53;2.05;;;;;20.10;101994.00;;;;5056506;28;20199;-77
2022/07/02 00:28:25;;;;;;;2.63;1.75;;;;;20.20;101999.00;;;;5047588;28;20227;-77
2022/07/02 00:30:53;;;;;;;2.33;1.90;;;;;20.20;102001.00;;;;5056558;28;20682;-77
2022/07/02 00:33:24;;;;;;;2.25;1.90;;;;;20.10;101996.00;;;;5051882;28;20219;-77
2022/07/02 00:35:52;;;;;;;4.53;1.90;;;;;20.10;101999.00;;;;5053289;28;20593;-77
2022/07/02 00:38:19;;;;;;;3.63;2.10;;;;;20.10;101997.00;;;;5060907;28;20203;-77
2022/07/02 00:40:48;;;;;;;2.13;1.80;;;;;20.10;101996.00;;;;5055853;28;20192;-77
2022/07/02 00:43:18;;;;;;;2.83;2.22;;;;;20.10;101996.00;;;;5050727;28;20204;-77
2022/07/02 00:45:45;;;;;;;3.40;2.33;;;;;20.00;101995.00;;;;5059989;28;20282;-77
2022/07/02 00:48:14;;;;;;;2.50;2.08;;;;;20.00;101994.00;;;;5063293;28;20227;-77
2022/07/02 00:50:41;;;;;;;2.38;2.13;;;;;20.00;101997.00;;;;5053950;28;20191;-77
2022/07/02 00:53:08;;;;;;;2.58;2.03;;;;;20.00;101994.00;;;;5059986;28;20394;-77
2022/07/02 00:55:36;;;;;;;2.60;2.30;;;;;20.00;101990.00;;;;5066581;28;20222;-77
2022/07/02 00:58:05;;;;;;;3.28;2.35;;;;;19.90;101994.00;;;;5054155;28;20644;-77
2022/07/02 01:00:32;;;;;;;2.53;2.33;;;;;19.90;101992.00;;;;5063914;28;20192;-77
2022/07/02 01:03:02;;;;;;;5.10;2.53;;;;;19.90;101990.00;;;;5063354;28;20203;-77
2022/07/02 01:05:30;;;;;;;4.03;2.70;;;;;19.90;101978.00;;;;5052539;28;20195;-77
2022/07/02 01:10:47;;;;;;;3.25;2.35;;;;;19.80;101970.00;;;;5056911;28;20226;-77
2022/07/02 01:13:17;;;;;;;2.75;2.55;;;;;19.80;101969.00;;;;5055853;28;20234;-77
2022/07/02 01:15:45;;;;;;;4.78;2.85;;;;;19.80;101968.00;;;;5064791;28;20226;-77
2022/07/02 01:18:17;;;;;;;4.43;2.67;;;;;19.80;101970.00;;;;5061202;28;20207;-77
2022/07/02 01:20:44;;;;;;;2.65;2.35;;;;;19.80;101974.00;;;;5053620;28;20200;-77
2022/07/02 01:23:14;;;;;;;2.85;2.53;;;;;19.70;101977.00;;;;5062777;28;20199;-77
2022/07/02 01:25:41;;;;;;;4.57;3.10;;;;;19.70;101972.00;;;;5054396;28;20199;-77
2022/07/02 01:28:09;;;;;;;3.58;2.95;;;;;19.70;101975.00;;;;5048204;28;20234;-77
2022/07/02 01:30:36;;;;;;;3.47;2.85;;;;;19.70;101972.00;;;;5052682;28;20214;-77
2022/07/02 01:33:03;;;;;;;3.85;3.15;;;;;19.70;101974.00;;;;5058035;28;20211;-77
2022/07/02 01:35:31;;;;;;;5.07;3.47;;;;;19.60;101974.00;;;;5053902;28;20279;-77
2022/07/02 01:37:58;;;;;;;4.63;3.25;;;;;19.70;101979.00;;;;5064703;28;20198;-77
2022/07/02 01:40:27;;;;;;;3.17;2.83;;;;;19.60;101976.00;;;;5056493;28;20219;-77
2022/07/02 01:42:54;;;;;;;4.20;3.28;;;;;19.60;101974.00;;;;5048532;28;20591;-77
2022/07/02 01:45:22;;;;;;;3.95;3.45;;;;;19.60;101973.00;;;;5048904;28;20196;-77
2022/07/02 01:47:49;;;;;;;6.38;3.50;;;;;19.60;101978.00;;;;5048530;28;20223;-77
2022/07/02 01:50:16;;;;;;;4.00;3.58;;;;;19.60;101976.00;;;;5048337;28;20210;-77
2022/07/02 01:52:44;;;;;;;3.55;3.25;;;;;19.60;101971.00;;;;5048973;28;20203;-77
2022/07/02 01:55:11;;;;;;;4.20;3.45;;;;;19.50;101973.00;;;;5047835;28;20223;-77
2022/07/02 01:57:40;;;;;;;3.40;3.10;;;;;19.50;101976.00;;;;5064185;28;20195;-76
2022/07/02 02:00:10;;;;;;;5.10;3.53;;;;;19.50;101975.00;;;;5061949;28;20206;-77
2022/07/02 02:02:38;;;;;;;3.55;3.15;;;;;19.50;101984.00;;;;5050225;28;20204;-77
2022/07/02 02:05:06;;;;;;;5.28;3.67;;;;;19.50;101973.00;;;;5055108;28;20589;-77
2022/07/02 02:07:33;;;;;;;4.13;3.47;;;;;19.50;101974.00;;;;5060658;28;20230;-77
2022/07/02 02:10:00;;;;;;;4.18;3.40;;;;;19.50;101972.00;;;;5055331;28;20199;-77
2022/07/02 02:12:28;;;;;;;6.53;2.97;;;;;19.50;101972.00;;;;5046299;28;20229;-76
2022/07/02 02:14:57;;;;;;;4.32;3.38;;;;;19.40;101977.00;;;;5046334;28;20654;-77
2022/07/02 02:17:25;;;;;;;4.30;3.47;;;;;19.40;101972.00;;;;5060612;28;20209;-77
2022/07/02 02:19:52;;;;;;;4.13;3.38;;;;;19.40;101965.00;;;;5064556;28;20196;-77
2022/07/02 02:22:19;;;;;;;3.28;2.97;;;;;19.40;101966.00;;;;5060485;28;20222;-77
2022/07/02 02:24:46;;;;;;;4.43;3.42;;;;;19.40;101972.00;;;;5048466;28;20627;-77
2022/07/02 02:27:14;;;;;;;3.40;2.97;;;;;19.40;101971.00;;;;5056617;28;20721;-77
2022/07/02 02:29:41;;;;;;;3.90;2.95;;;;;19.40;101972.00;;;;5060629;28;20199;-77
2022/07/02 02:32:10;;;;;;;3.65;3.28;;;;;19.40;101968.00;;;;5052017;28;20222;-77
2022/07/02 02:34:37;;;;;;;5.07;2.85;;;;;19.40;101973.00;;;;5047728;28;20192;-77
2022/07/02 02:37:05;;;;;;;3.13;2.83;;;;;19.40;101968.00;;;;5047416;28;20190;-77
2022/07/02 02:39:35;;;;;;;3.95;3.05;;;;;19.30;101964.00;;;;5046440;28;20200;-76
2022/07/02 02:42:03;;;;;;;6.57;3.00;;;;;19.30;101967.00;;;;5057500;28;20203;-76
2022/07/02 02:44:32;;;;;;;3.90;3.20;;;;;19.30;101973.00;;;;5052031;28;20203;-77
2022/07/02 02:46:59;;;;;;;3.05;2.75;;;;;19.30;101975.00;;;;5048211;28;20202;-76
2022/07/02 02:49:28;;;;;;;4.43;3.13;;;;;19.30;101978.00;;;;5050273;28;20208;-77
2022/07/02 02:51:55;;;;;;;3.28;2.70;;;;;19.30;101980.00;;;;5055709;28;20213;-77
2022/07/02 02:54:22;;;;;;;3.13;2.83;;;;;19.30;101970.00;;;;5053452;28;20219;-77
2022/07/02 02:56:50;;;;;;;5.47;2.85;;;;;19.20;101977.00;;;;5061334;28;20199;-77
2022/07/02 02:59:17;;;;;;;4.13;3.25;;;;;19.20;101975.00;;;;5054759;28;20668;-77
2022/07/02 03:01:44;;;;;;;3.22;2.92;;;;;19.20;101980.00;;;;5059485;28;20202;-77
2022/07/02 03:04:12;;;;;;;3.05;2.75;;;;;19.20;101978.00;;;;5053169;28;20206;-77
2022/07/02 03:06:41;;;;;;;3.05;2.50;;;;;19.20;101979.00;;;;5045922;28;20194;-77
2022/07/02 03:09:11;;;;;;;3.15;2.72;;;;;19.20;101984.00;;;;5047196;28;20215;-76
2022/07/02 03:11:38;;;;;;;3.85;3.17;;;;;19.20;101982.00;;;;5054998;28;20681;-77
2022/07/02 03:14:05;;;;;;;3.92;3.08;;;;;19.10;101986.00;;;;5060562;28;20206;-76
2022/07/02 03:16:32;;;;;;;5.47;2.97;;;;;19.10;101987.00;;;;5060422;28;20206;-77
2022/07/02 03:19:00;;;;;;;3.90;3.42;;;;;19.10;101985.00;;;;5050208;28;20858;-77
2022/07/02 03:21:27;;;;;;;4.28;2.92;;;;;19.10;101981.00;;;;5060072;28;20188;-76
2022/07/02 03:23:56;;;;;;;4.68;3.17;;;;;19.10;101979.00;;;;5061554;28;20202;-77
2022/07/02 03:26:23;;;;;;;3.15;2.85;;;;;19.10;101983.00;;;;5051010;28;20200;-77
2022/07/02 03:28:50;;;;;;;4.90;2.95;;;;;19.10;101985.00;;;;5051198;28;20227;-77
2022/07/02 03:31:18;;;;;;;4.15;3.35;;;;;19.00;101989.00;;;;5054907;28;20195;-77
2022/07/02 03:33:45;;;;;;;5.75;3.35;;;;;19.00;101994.00;;;;5049233;28;20199;-77
2022/07/02 03:36:12;;;;;;;4.25;3.08;;;;;19.00;101986.00;;;;5049221;28;20199;-77
2022/07/02 03:38:40;;;;;;;6.00;3.35;;;;;19.00;101991.00;;;;5060783;28;20409;-77
2022/07/02 03:41:08;;;;;;;3.95;3.28;;;;;19.00;101995.00;;;;5055018;28;20211;-77
2022/07/02 03:43:36;;;;;;;3.30;3.00;;;;;19.00;101998.00;;;;5051391;28;20219;-77
2022/07/02 03:46:03;;;;;;;5.43;3.60;;;;;19.00;101995.00;;;;5051989;28;20191;-77
2022/07/02 03:48:31;;;;;;;3.50;3.17;;;;;19.00;102000.00;;;;5052494;28;20231;-77
2022/07/02 03:50:58;;;;;;;4.53;3.35;;;;;19.00;101996.00;;;;5054679;28;20196;-77
2022/07/02 03:53:25;;;;;;;4.28;3.22;;;;;19.00;101991.00;;;;5063681;28;20210;-77
2022/07/02 03:55:53;;;;;;;2.65;2.30;;;;;19.00;101988.00;;;;5056559;28;20235;-77
2022/07/02 03:58:21;;;;;;;3.85;3.00;;;;;19.00;101992.00;;;;5051097;28;20204;-77
2022/07/02 04:00:49;;;;;;;5.38;3.00;;;;;19.00;101997.00;;;;5051803;28;20203;-77
2022/07/02 04:03:16;;;;;;;4.03;2.92;;;;;19.00;101991.00;;;;5053388;28;20199;-77
2022/07/02 04:05:43;;;;;;;3.95;2.60;;;;;19.00;101986.00;;;;5055660;28;20187;-77
2022/07/02 04:08:11;;;;;;;3.83;2.92;;;;;19.00;101992.00;;;;5071194;28;20223;-77
2022/07/02 04:10:38;;;;;;;3.40;2.72;;;;;19.00;101999.00;;;;5071403;28;20202;-77
2022/07/02 04:13:05;;;;;;;5.28;2.78;;;;;19.10;102004.00;;;;5052238;28;20200;-77
2022/07/02 04:15:34;;;;;;;3.30;3.00;;;;;19.10;102009.00;;;;5051586;28;20223;-77
2022/07/02 04:18:01;;;;;;;3.80;3.13;;;;;19.10;102004.00;;;;5050879;28;20206;-77
2022/07/02 04:20:29;;;;;;;3.35;2.97;;;;;19.10;102006.00;;;;5050223;28;20625;-77
2022/07/02 04:22:56;;;;;;;3.85;2.85;;;;;19.10;102005.00;;;;5052316;28;20200;-78
2022/07/02 04:25:23;;;;;;;3.08;2.55;;;;;19.20;102011.00;;;;5050341;28;20199;-77
2022/07/02 04:27:50;;;;;;;15.85;4.65;;;;;19.20;102015.00;;;;5049799;28;20220;-77
2022/07/02 04:30:18;;;;;;;2.75;2.47;;;;;19.20;102017.00;;;;5053024;28;20728;-77
2022/07/02 04:32:46;;;;;;;3.50;2.90;;;;;19.20;102011.00;;;;5050514;28;21046;-77
2022/07/02 04:35:14;;;;;;;3.15;2.72;;;;;19.20;102010.00;;;;5060343;28;20203;-77
2022/07/02 04:37:41;;;;;;;3.83;2.67;;;;;19.30;102011.00;;;;5068018;28;20202;-77
2022/07/02 04:40:09;;;;;;;3.05;2.47;;;;;19.30;102014.00;;;;5049937;28;20199;-77
2022/07/02 04:42:36;;;;;;;3.10;2.83;;;;;19.30;102019.00;;;;5047570;28;20199;-76
2022/07/02 04:45:05;;;;;;;3.72;3.08;;;;;19.30;102016.00;;;;5051185;28;20199;-77
2022/07/02 04:47:32;;;;;;;2.58;2.38;;;;;19.40;102013.00;;;;5057767;28;20201;-78
2022/07/02 04:50:01;;;;;;;3.83;2.58;;;;;19.40;102010.00;;;;5062959;28;20203;-78
2022/07/02 04:52:28;;;;;;;4.57;2.75;;;;;19.50;102018.00;;;;5052477;28;20953;-78
2022/07/02 04:54:55;;;;;;;3.13;2.75;;;;;19.50;102014.00;;;;5053160;28;20227;-78
2022/07/02 04:57:22;;;;;;;2.92;2.53;;;;;19.50;102022.00;;;;5057953;28;20199;-78
2022/07/02 04:59:50;;;;;;;3.10;2.40;;;;;19.60;102018.00;;;;5056550;28;20926;-79
2022/07/02 05:02:17;;;;;;;4.03;2.60;;;;;19.70;102014.00;;;;5067586;28;20420;-79
2022/07/02 05:04:44;;;;;;;3.95;2.75;;;;;19.70;102021.00;;;;5062614;28;20207;-79
2022/07/02 05:07:13;;;;;;;2.30;1.90;;;;;19.80;102022.00;;;;5063635;28;20210;-78
2022/07/02 05:09:40;;;;;;;2.88;2.38;;;;;19.90;102023.00;;;;5069461;28;20234;-78
2022/07/02 05:12:09;;;;;;;4.45;3.03;;;;;19.90;102017.00;;;;5061915;28;20755;-78
2022/07/02 05:14:38;;;;;;;2.90;2.53;;;;;20.00;102017.00;;;;5070365;28;20195;-78
2022/07/02 05:17:05;;;;;;;2.55;2.35;;;;;20.10;102012.00;;;;5061788;28;20209;-78
2022/07/02 05:19:33;;;;;;;3.35;2.58;;;;;20.10;102014.00;;;;5066538;28;20209;-79
2022/07/02 05:22:00;;;;;;;3.08;2.25;;;;;20.20;102017.00;;;;5058241;28;20192;-79
2022/07/02 05:24:29;;;;;;;3.75;2.40;;;;;20.20;102016.00;;;;5059865;28;20198;-79
2022/07/02 05:26:56;;;;;;;4.20;2.53;;;;;20.30;102012.00;;;;5061322;28;20200;-79
2022/07/02 05:29:24;;;;;;;2.50;2.05;;;;;20.40;102013.00;;;;5056212;28;20226;-78
2022/07/02 05:31:51;;;;;;;4.28;2.35;;;;;20.50;102015.00;;;;5059012;28;20223;-77
2022/07/02 05:34:18;;;;;;;3.15;1.90;;;;;20.60;102022.00;;;;5048320;28;20213;-78
2022/07/02 05:36:47;;;;;;;3.05;1.85;;;;;20.60;102018.00;;;;5059222;28;20199;-79
2022/07/02 05:39:14;;;;;;;7.20;2.53;;;;;20.70;102025.00;;;;5057661;28;20215;-78
2022/07/02 05:41:43;;;;;;;2.47;1.80;;;;;20.70;102033.00;;;;5057397;28;20191;-79
2022/07/02 05:44:10;;;;;;;5.63;1.77;;;;;20.80;102037.00;;;;5059463;28;20195;-79
2022/07/02 05:46:38;;;;;;;1.92;1.80;;;;;20.80;102044.00;;;;5059672;28;20199;-79
2022/07/02 05:49:05;;;;;;;2.75;1.88;;;;;20.90;102036.00;;;;5053275;28;20693;-78
2022/07/02 05:51:32;;;;;;;3.10;1.60;;;;;20.90;102050.00;;;;5052342;28;20239;-80
2022/07/02 05:54:00;;;;;;;2.42;2.03;;;;;20.90;102051.00;;;;5065320;28;20226;-78
2022/07/02 05:56:27;;;;;;;3.28;1.92;;;;;21.00;102054.00;;;;5053507;28;20637;-79
2022/07/02 05:58:55;;;;;;;2.72;1.80;;;;;21.00;102053.00;;;;5060963;28;20591;-79
2022/07/02 06:01:23;;;;;;;3.53;1.80;;;;;21.10;102051.00;;;;5056468;28;20294;-79
2022/07/02 06:03:51;;;;;;;2.50;1.70;;;;;21.10;102053.00;;;;5057766;28;20298;-78
2022/07/02 06:09:03;;;;;;;2.00;1.80;;;;;21.30;102049.00;;;;5056032;28;20231;-78
2022/07/02 06:11:30;;;;;;;2.20;2.00;;;;;21.40;102043.00;;;;5056520;28;20199;-77
2022/07/02 06:13:59;;;;;;;2.45;2.00;;;;;21.40;102052.00;;;;5062607;28;20206;-77
2022/07/02 06:16:27;;;;;;;5.07;1.80;;;;;21.50;102048.00;;;;5052168;28;20198;-78
2022/07/02 06:18:55;;;;;;;2.70;1.98;;;;;21.60;102048.00;;;;5057771;28;20211;-80
2022/07/02 06:21:22;;;;;;;3.92;1.90;;;;;21.60;102048.00;;;;5049075;28;20196;-78
2022/07/02 06:23:49;;;;;;;2.78;1.88;;;;;21.70;102044.00;;;;5047619;28;20196;-77
2022/07/02 06:26:17;;;;;;;4.22;1.67;;;;;21.80;102054.00;;;;5049678;28;20691;-77
2022/07/02 06:28:44;;;;;;;4.05;2.00;;;;;21.90;102057.00;;;;5048961;28;20219;-77
2022/07/02 06:31:13;;;;;;;2.00;1.80;;;;;22.00;102057.00;;;;5056797;28;20199;-77
2022/07/02 06:33:41;;;;;;;2.92;1.60;;;;;22.10;102056.00;;;;5054781;28;20202;-78
2022/07/02 06:36:14;;;;;;;5.45;2.08;;;;;22.20;102061.00;;;;5048565;28;20196;-80
2022/07/02 06:38:41;;;;;;;3.70;1.73;;;;;22.20;102063.00;;;;5049760;28;20211;-78
2022/07/02 06:42:18;;;;;;;7.20;1.60;;;;;22.30;102069.00;;;;5051131;28;20208;-79
2022/07/02 06:44:04;;;;;;;4.00;1.48;;;;;22.30;102074.00;;;;5054746;28;20281;-78
2022/07/02 06:46:34;;;;;;;3.72;1.77;;;;;22.40;102078.00;;;;5049149;28;20207;-80
2022/07/02 06:49:02;;;;;;;1.95;1.60;;;;;22.50;102075.00;;;;5059519;28;20218;-76
2022/07/02 06:51:29;;;;;;;4.97;1.50;;;;;22.60;102071.00;;;;5067740;28;20209;-77
2022/07/02 06:54:00;;;;;;;2.65;1.55;;;;;22.70;102079.00;;;;5057805;28;20227;-77
2022/07/02 06:56:29;;;;;;;3.20;1.35;;;;;22.80;102080.00;;;;5050873;28;20260;-78
2022/07/02 06:58:57;;;;;;;2.13;1.17;;;;;22.80;102088.00;;;;5054962;28;20235;-78
2022/07/02 07:01:24;;;;;;;1.85;1.45;;;;;22.90;102092.00;;;;5053366;28;20199;-79
2022/07/02 07:03:53;;;;;;;2.25;1.27;;;;;22.90;102087.00;;;;5057256;28;20202;-80
2022/07/02 07:06:21;;;;;;;1.33;1.15;;;;;22.90;102091.00;;;;5054407;28;20187;-83
2022/07/02 07:08:52;;;;;;;2.95;1.35;;;;;23.00;102092.00;;;;5049259;28;20743;-83
2022/07/02 07:11:20;;;;;;;1.95;0.90;;;;;23.10;102087.00;;;;5052536;28;20198;-83
2022/07/02 07:13:47;;;;;;;3.60;1.13;;;;;23.20;102079.00;;;;5060829;28;20219;-83
2022/07/02 07:16:15;;;;;;;3.83;1.02;;;;;23.30;102083.00;;;;5048024;28;20200;-82
2022/07/02 07:18:43;;;;;;;2.17;0.77;;;;;23.30;102078.00;;;;5046098;28;20585;-82
2022/07/02 07:21:11;;;;;;;2.13;0.88;;;;;23.40;102080.00;;;;5050301;28;20218;-82
2022/07/02 07:23:38;;;;;;;2.60;0.82;;;;;23.50;102074.00;;;;5057033;28;20187;-82
2022/07/02 07:26:06;;;;;;;1.75;1.00;;;;;23.50;102071.00;;;;5067440;28;20211;-83
2022/07/02 07:28:33;;;;;;;1.50;0.80;;;;;23.60;102075.00;;;;5060788;28;20206;-82
2022/07/02 07:31:00;;;;;;;0.98;0.68;;;;;23.70;102082.00;;;;5052815;28;20203;-82
2022/07/02 07:33:28;;;;;;;1.42;0.93;;;;;23.80;102082.00;;;;5050814;28;20222;-82
2022/07/02 07:35:56;;;;;;;1.98;1.05;;;;;23.90;102086.00;;;;5056376;28;20198;-82
2022/07/02 07:38:24;;;;;;;3.72;0.90;;;;;24.00;102083.00;;;;5071761;28;20203;-83
2022/07/02 07:40:52;;;;;;;1.90;0.80;;;;;24.10;102080.00;;;;5070131;28;20215;-82
2022/07/02 07:43:19;;;;;;;1.15;0.70;;;;;24.20;102075.00;;;;5070350;28;20752;-82
2022/07/02 07:45:46;;;;;;;1.63;0.60;;;;;24.20;102080.00;;;;5063426;28;20692;-82
2022/07/02 07:48:14;;;;;;;0.95;0.70;;;;;24.30;102085.00;;;;5068985;28;20908;-83
2022/07/02 07:50:41;;;;;;;1.20;0.70;;;;;24.40;102089.00;;;;5056494;28;20223;-83
2022/07/02 07:53:08;;;;;;;7.70;0.95;;;;;24.50;102089.00;;;;5051303;28;20242;-84
2022/07/02 07:55:37;;;;;;;0.68;0.57;;;;;24.60;102088.00;;;;5063178;28;20230;-82
2022/07/02 07:58:05;;;;;;;2.03;0.80;;;;;24.70;102086.00;;;;5070708;28;20210;-81
2022/07/02 08:00:32;;;;;;;0.80;0.60;;;;;24.80;102083.00;;;;5058510;28;20187;-84
2022/07/02 08:03:00;;;;;;;1.67;0.60;;;;;25.00;102087.00;;;;5062487;28;20204;-81
2022/07/02 08:05:27;;;;;;;1.15;0.80;;;;;25.10;102078.00;;;;5069430;28;20191;-83
2022/07/02 08:07:57;;;;;;;0.70;0.55;;;;;25.20;102077.00;;;;5061312;28;20203;-84
2022/07/02 08:10:24;;;;;;;1.13;0.70;;;;;25.30;102078.00;;;;5065129;28;20374;-84
2022/07/02 08:12:53;;;;;;;1.60;0.80;;;;;25.40;102073.00;;;;5071203;28;20548;-83
2022/07/02 08:15:20;;;;;;;0.93;0.50;;;;;25.60;102070.00;;;;5054234;28;20187;-83
2022/07/02 08:17:48;;;;;;;1.17;0.65;;;;;25.70;102072.00;;;;5063747;28;20210;-83
2022/07/02 08:20:15;;;;;;;3.17;0.90;;;;;25.80;102064.00;;;;5051380;28;21036;-82
2022/07/02 08:22:46;;;;;;;1.75;0.63;;;;;25.90;102069.00;;;;5053103;28;20207;-81
2022/07/02 08:25:14;;;;;;;1.95;0.50;;;;;26.00;102060.00;;;;5057767;28;20911;-82
2022/07/02 08:27:42;;;;;;;1.60;0.50;;;;;26.10;102063.00;;;;5057415;28;20194;-80
2022/07/02 08:30:12;;;;;;;0.50;0.50;;;;;26.20;102066.00;;;;5065628;28;20229;-83
2022/07/02 08:32:39;;;;;;;0.85;0.40;;;;;26.30;102067.00;;;;5056717;28;20217;-83
2022/07/02 08:35:07;;;;;;;0.60;0.50;;;;;26.40;102068.00;;;;5062320;28;20297;-82
2022/07/02 08:37:35;;;;;;;2.15;0.85;;;;;26.50;102069.00;;;;5058801;28;20397;-83
2022/07/02 08:40:03;;;;;;;1.35;0.50;;;;;26.60;102064.00;;;;5055836;28;20210;-83
2022/07/02 08:42:32;;;;;;;1.42;0.40;;;;;26.70;102068.00;;;;5054721;28;20210;-83
2022/07/02 08:45:02;;;;;;;0.43;0.30;;;;;26.80;102063.00;;;;5048247;28;20199;-81
2022/07/02 08:47:31;;;;;;;1.42;0.55;;;;;26.90;102068.00;;;;5050295;28;20207;-82
2022/07/02 08:49:59;;;;;;;1.20;0.30;;;;;26.90;102060.00;;;;5061035;28;20725;-80
2022/07/02 08:52:28;;;;;;;1.10;0.25;;;;;27.00;102054.00;;;;5059417;28;20203;-81
2022/07/02 08:54:56;;;;;;;1.55;0.52;;;;;27.10;102055.00;;;;5057398;28;20239;-81
2022/07/02 08:57:28;;;;;;;1.23;0.50;;;;;27.30;102052.00;;;;5057958;28;20215;-81
2022/07/02 08:59:57;;;;;;;0.90;0.30;;;;;27.30;102051.00;;;;5061779;28;20212;-81
2022/07/02 09:02:26;;;;;;;0.85;0.32;;;;;27.50;102050.00;;;;5060486;28;20206;-80
2022/07/02 09:04:57;;;;;;;2.90;0.50;;;;;27.60;102044.00;;;;5055795;28;20258;-81
2022/07/02 09:07:24;;;;;;;1.13;0.30;;;;;27.70;102050.00;;;;5063792;28;20206;-80
2022/07/02 09:09:53;;;;;;;1.38;0.38;;;;;27.80;102042.00;;;;5056569;28;20223;-80
2022/07/02 09:12:23;;;;;;;0.43;0.32;;;;;27.90;102045.00;;;;5063336;28;20206;-80
2022/07/02 09:14:50;;;;;;;1.52;0.40;;;;;28.00;102047.00;;;;5049507;28;20282;-81
2022/07/02 09:17:17;;;;;;;0.30;0.20;;;;;28.10;102049.00;;;;5046596;28;20200;-83
2022/07/02 09:19:45;;;;;;;0.60;0.30;;;;;28.20;102046.00;;;;5054174;28;20206;-84
2022/07/02 09:22:13;;;;;;;1.30;0.47;;;;;28.30;102048.00;;;;5058967;28;20203;-82
2022/07/02 09:24:43;;;;;;;0.90;0.40;;;;;28.40;102047.00;;;;5053088;28;20195;-82
2022/07/02 09:27:12;;;;;;;4.68;0.75;;;;;28.50;102048.00;;;;5049250;28;20188;-81
2022/07/02 09:29:45;;;;;;;1.20;0.40;;;;;28.50;102051.00;;;;5054477;28;20219;-81
2022/07/02 09:32:13;;;;;;;0.80;0.38;;;;;28.60;102046.00;;;;5055124;28;20215;-80
2022/07/02 09:34:44;;;;;;;0.98;0.45;;;;;28.70;102041.00;;;;5069629;28;20213;-82
2022/07/02 09:37:20;;;;;;;2.42;0.20;;;;;28.70;102042.00;;;;5060984;28;20203;-81
2022/07/02 09:39:49;;;;;;;1.27;0.50;;;;;28.80;102036.00;;;;5050744;28;20195;-82
2022/07/02 09:42:26;;;;;;;0.95;0.40;;;;;28.80;102039.00;;;;5054209;28;20206;-80
2022/07/02 09:44:53;;;;;;;1.50;0.30;;;;;28.90;102040.00;;;;5068452;28;20230;-78
2022/07/02 09:47:31;;;;;;;0.77;0.40;;;;;28.90;102042.00;;;;5060139;28;20203;-79
2022/07/02 09:50:02;;;;;;;0.20;0.20;;;;;29.10;102034.00;;;;5056790;28;20223;-79
2022/07/02 09:52:31;;;;;;;1.63;0.40;;;;;29.10;102040.00;;;;5065213;28;20191;-78
2022/07/02 09:54:59;;;;;;;1.88;0.57;;;;;29.20;102037.00;;;;5068443;28;20299;-79
2022/07/02 09:57:28;;;;;;;0.57;0.30;;;;;29.20;102030.00;;;;5059387;28;20203;-78
2022/07/02 10:00:06;;;;;;;0.40;0.28;;;;;29.20;102033.00;;;;5048715;28;20207;-80
2022/07/02 10:02:36;;;;;;;2.40;0.35;;;;;29.30;102039.00;;;;5057127;28;20202;-78
2022/07/02 10:05:06;;;;;;;2.15;0.40;;;;;29.30;102029.00;;;;5064074;28;20576;-78
2022/07/02 10:07:36;;;;;;;1.75;0.40;;;;;29.40;102028.00;;;;5061403;28;20199;-79
2022/07/02 10:10:05;;;;;;;1.10;0.35;;;;;29.50;102035.00;;;;5051199;28;20230;-79
2022/07/02 10:12:33;;;;;;;0.60;0.30;;;;;29.60;102030.00;;;;5050901;28;20198;-79
2022/07/02 10:15:04;;;;;;;1.55;0.60;;;;;29.60;102028.00;;;;5068102;28;20194;-78
2022/07/02 10:17:35;;;;;;;0.98;0.50;;;;;29.60;102024.00;;;;5048947;28;20195;-79
2022/07/02 10:20:04;;;;;;;0.90;0.32;;;;;29.70;102019.00;;;;5055839;28;20670;-80
2022/07/02 10:22:34;;;;;;;0.68;0.40;;;;;29.70;102020.00;;;;5058012;28;21025;-79
2022/07/02 10:25:04;;;;;;;1.00;0.40;;;;;29.70;102011.00;;;;5050311;28;20600;-78
2022/07/02 10:27:32;;;;;;;1.50;0.60;;;;;29.70;102014.00;;;;5053333;28;20204;-81
2022/07/02 10:29:59;;;;;;;2.63;0.52;;;;;29.80;102017.00;;;;5049942;28;20223;-78
2022/07/02 10:32:33;;;;;;;0.55;0.38;;;;;29.80;102011.00;;;;5049058;28;20701;-79
2022/07/02 10:35:09;;;;;;;2.10;0.40;;;;;29.80;102012.00;;;;5049001;28;20191;-80
2022/07/02 10:37:40;;;;;;;3.42;0.57;;;;;29.90;102010.00;;;;5049350;28;20680;-78
2022/07/02 10:40:10;;;;;;;0.82;0.40;;;;;29.90;102002.00;;;;5052902;28;20201;-79
2022/07/02 10:42:41;;;;;;;1.73;0.52;;;;;29.90;102002.00;;;;5056659;28;20196;-81
2022/07/02 10:45:15;;;;;;;0.40;0.30;;;;;29.90;101994.00;;;;5052113;28;20202;-78
2022/07/02 10:48:00;;;;;;;0.80;0.38;;;;;29.90;101993.00;;;;5053066;28;20731;-78
2022/07/02 10:50:39;;;;;;;0.28;0.25;;;;;29.90;101993.00;;;;5061917;28;20225;-78
2022/07/02 10:53:12;;;;;;;0.70;0.40;;;;;29.90;101993.00;;;;5053897;28;20198;-77
2022/07/02 10:55:43;;;;;;;1.50;0.43;;;;;29.90;102000.00;;;;5052986;28;20219;-79
2022/07/02 10:58:19;;;;;;;1.52;0.68;;;;;29.80;101994.00;;;;5051269;28;20207;-81
2022/07/02 11:00:47;;;;;;;1.88;0.35;;;;;29.80;101998.00;;;;5054586;28;20624;-80
2022/07/02 11:03:16;;;;;;;0.63;0.50;;;;;29.70;102004.00;;;;5062642;28;20204;-80
2022/07/02 11:06:00;;;;;;;1.35;0.68;;;;;29.60;101992.00;;;;5059378;28;20210;-80
2022/07/02 11:08:54;;;;;;;0.65;0.50;;;;;29.50;101995.00;;;;5061635;28;20202;-80
2022/07/02 11:11:30;;;;;;;2.03;0.60;;;;;29.60;101990.00;;;;5060993;28;20241;-78
2022/07/02 11:14:01;;;;;;;0.82;0.35;;;;;29.50;101986.00;;;;5054138;28;20213;-79
2022/07/02 11:16:31;;;;;;;1.13;0.52;;;;;29.50;101989.00;;;;5058333;28;20277;-78
2022/07/02 11:18:59;;;;;;;0.80;0.38;;;;;29.40;101986.00;;;;5060510;28;20791;-79
2022/07/02 11:21:27;;;;;;;0.75;0.50;;;;;29.40;101989.00;;;;5066363;28;20896;-79
2022/07/02 11:23:56;;;;;;;2.28;0.77;;;;;29.30;101984.00;;;;5062697;28;20187;-77
2022/07/02 11:26:25;;;;;;;0.98;0.30;;;;;29.30;101985.00;;;;5067566;28;20261;-79
2022/07/02 11:28:54;;;;;;;1.02;0.60;;;;;29.20;101989.00;;;;5057606;28;20207;-77
2022/07/02 11:31:23;;;;;;;0.70;0.47;;;;;29.10;101984.00;;;;5065740;28;20306;-77
2022/07/02 11:33:52;;;;;;;0.65;0.50;;;;;29.10;101980.00;;;;5066748;28;20204;-77
2022/07/02 11:36:20;;;;;;;1.38;0.50;;;;;29.10;101978.00;;;;5060748;28;20203;-77
2022/07/02 11:38:49;;;;;;;12.88;1.05;;;;;29.00;101975.00;;;;5053750;28;20206;-78
2022/07/02 11:41:21;;;;;;;1.83;0.40;;;;;29.00;101970.00;;;;5064772;28;20252;-76
2022/07/02 11:43:49;;;;;;;2.58;0.57;;;;;29.00;101976.00;;;;5063596;28;20199;-77
2022/07/02 11:46:19;;;;;;;0.90;0.52;;;;;29.00;101974.00;;;;5054579;28;20199;-77
2022/07/02 11:48:47;;;;;;;1.02;0.40;;;;;29.00;101966.00;;;;5058591;28;20199;-78
2022/07/02 11:51:15;;;;;;;2.03;0.63;;;;;29.00;101969.00;;;;5068397;28;20272;-77
2022/07/02 11:53:42;;;;;;;1.38;0.50;;;;;29.00;101957.00;;;;5060162;28;20203;-78
2022/07/02 11:56:11;;;;;;;1.77;0.60;;;;;29.10;101953.00;;;;5063523;28;20210;-78
2022/07/02 11:58:42;;;;;;;1.70;0.55;;;;;29.10;101956.00;;;;5064310;28;20290;-77
2022/07/02 12:01:24;;;;;;;1.42;0.40;;;;;29.10;101954.00;;;;5059185;28;20203;-77
2022/07/02 12:03:54;;;;;;;2.88;0.73;;;;;29.20;101949.00;;;;5058482;28;20784;-78
2022/07/02 12:06:22;;;;;;;1.23;0.50;;;;;29.20;101948.00;;;;5061244;28;20200;-78
2022/07/02 12:08:53;;;;;;;0.77;0.40;;;;;29.20;101941.00;;;;5066438;28;20210;-78
2022/07/02 12:11:22;;;;;;;1.33;0.52;;;;;29.20;101945.00;;;;5066842;28;20225;-78
2022/07/02 12:13:51;;;;;;;0.45;0.40;;;;;29.20;101948.00;;;;5069473;28;20679;-78
2022/07/02 12:16:20;;;;;;;0.82;0.40;;;;;29.20;101948.00;;;;5058926;28;20210;-78
2022/07/02 12:18:59;;;;;;;0.98;0.50;;;;;29.10;101942.00;;;;5048172;28;20835;-77
2022/07/02 12:21:35;;;;;;;1.80;0.50;;;;;29.10;101936.00;;;;5048103;28;20195;-79